sensor_id;sensor_type;location;lat;lon;timestamp;temperature;humidity
13707;DHT22;6925;47.816;13.072;2023-12-20T00:01:25;5.90;64.60
13707;DHT22;6925;47.816;13.072;2023-12-20T00:03:52;5.80;64.70
13707;DHT22;6925;47.816;13.072;2023-12-20T00:06:19;5.80;64.70
13707;DHT22;6925;47.816;13.072;2023-12-20T00:08:46;5.80;64.80
13707;DHT22;6925;47.816;13.072;2023-12-20T00:11:13;5.90;65.10
13707;DHT22;6925;47.816;13.072;2023-12-20T00:13:42;5.90;65.00
13707;DHT22;6925;47.816;13.072;2023-12-20T00:16:09;5.90;65.30
13707;DHT22;6925;47.816;13.072;2023-12-20T00:18:36;6.00;65.90
13707;DHT22;6925;47.816;13.072;2023-12-20T00:21:03;6.00;65.10
13707;DHT22;6925;47.816;13.072;2023-12-20T00:23:30;5.90;65.30
13707;DHT22;6925;47.816;13.072;2023-12-20T00:25:58;5.90;65.40
13707;DHT22;6925;47.816;13.072;2023-12-20T00:28:25;5.90;65.60
13707;DHT22;6925;47.816;13.072;2023-12-20T00:30:53;5.90;65.30
13707;DHT22;6925;47.816;13.072;2023-12-20T00:33:20;5.80;65.40
13707;DHT22;6925;47.816;13.072;2023-12-20T00:35:48;5.90;65.60
13707;DHT22;6925;47.816;13.072;2023-12-20T00:38:15;5.80;65.90
13707;DHT22;6925;47.816;13.072;2023-12-20T00:40:42;5.70;65.50
13707;DHT22;6925;47.816;13.072;2023-12-20T00:43:09;5.70;65.90
13707;DHT22;6925;47.816;13.072;2023-12-20T00:45:36;5.90;65.30
13707;DHT22;6925;47.816;13.072;2023-12-20T00:48:06;6.00;64.70
13707;DHT22;6925;47.816;13.072;2023-12-20T00:50:33;6.00;65.00
13707;DHT22;6925;47.816;13.072;2023-12-20T00:53:00;6.10;65.70
13707;DHT22;6925;47.816;13.072;2023-12-20T00:55:27;6.10;64.20
13707;DHT22;6925;47.816;13.072;2023-12-20T00:57:54;6.20;63.70
13707;DHT22;6925;47.816;13.072;2023-12-20T01:00:22;6.20;63.50
13707;DHT22;6925;47.816;13.072;2023-12-20T01:02:49;6.10;63.80
13707;DHT22;6925;47.816;13.072;2023-12-20T01:05:18;6.00;64.10
13707;DHT22;6925;47.816;13.072;2023-12-20T01:07:48;6.00;64.30
13707;DHT22;6925;47.816;13.072;2023-12-20T01:10:15;5.90;64.20
13707;DHT22;6925;47.816;13.072;2023-12-20T01:12:43;5.90;64.30
13707;DHT22;6925;47.816;13.072;2023-12-20T01:15:10;5.90;64.30
13707;DHT22;6925;47.816;13.072;2023-12-20T01:17:38;5.80;64.20
13707;DHT22;6925;47.816;13.072;2023-12-20T01:20:06;5.70;64.50
13707;DHT22;6925;47.816;13.072;2023-12-20T01:22:35;5.60;64.80
13707;DHT22;6925;47.816;13.072;2023-12-20T01:25:02;5.60;65.20
13707;DHT22;6925;47.816;13.072;2023-12-20T01:27:30;5.60;65.20
13707;DHT22;6925;47.816;13.072;2023-12-20T01:29:57;5.60;65.20
13707;DHT22;6925;47.816;13.072;2023-12-20T01:32:24;5.60;65.00
13707;DHT22;6925;47.816;13.072;2023-12-20T01:34:51;5.60;65.00
13707;DHT22;6925;47.816;13.072;2023-12-20T01:37:18;5.70;64.90
13707;DHT22;6925;47.816;13.072;2023-12-20T01:39:46;5.70;64.80
13707;DHT22;6925;47.816;13.072;2023-12-20T01:42:13;5.80;64.60
13707;DHT22;6925;47.816;13.072;2023-12-20T01:44:40;5.80;64.70
13707;DHT22;6925;47.816;13.072;2023-12-20T01:47:08;5.80;65.00
13707;DHT22;6925;47.816;13.072;2023-12-20T01:49:35;5.80;64.70
13707;DHT22;6925;47.816;13.072;2023-12-20T01:52:03;5.70;64.50
13707;DHT22;6925;47.816;13.072;2023-12-20T01:54:31;5.70;64.80
13707;DHT22;6925;47.816;13.072;2023-12-20T01:57:00;5.80;65.00
13707;DHT22;6925;47.816;13.072;2023-12-20T01:59:28;5.70;65.10
13707;DHT22;6925;47.816;13.072;2023-12-20T02:01:56;5.60;65.20
13707;DHT22;6925;47.816;13.072;2023-12-20T02:04:23;5.60;65.00
13707;DHT22;6925;47.816;13.072;2023-12-20T02:06:52;5.50;65.70
13707;DHT22;6925;47.816;13.072;2023-12-20T02:09:20;5.30;66.00
13707;DHT22;6925;47.816;13.072;2023-12-20T02:11:47;5.30;66.40
13707;DHT22;6925;47.816;13.072;2023-12-20T02:14:15;5.40;66.50
13707;DHT22;6925;47.816;13.072;2023-12-20T02:16:42;5.40;66.00
13707;DHT22;6925;47.816;13.072;2023-12-20T02:19:13;5.40;66.10
13707;DHT22;6925;47.816;13.072;2023-12-20T02:21:42;5.20;66.30
13707;DHT22;6925;47.816;13.072;2023-12-20T02:24:08;5.20;66.60
13707;DHT22;6925;47.816;13.072;2023-12-20T02:26:35;5.10;66.70
13707;DHT22;6925;47.816;13.072;2023-12-20T02:29:03;5.10;66.90
13707;DHT22;6925;47.816;13.072;2023-12-20T02:31:30;5.10;66.80
13707;DHT22;6925;47.816;13.072;2023-12-20T02:33:57;5.10;67.20
13707;DHT22;6925;47.816;13.072;2023-12-20T02:36:24;5.10;66.80
13707;DHT22;6925;47.816;13.072;2023-12-20T02:38:53;5.00;67.10
13707;DHT22;6925;47.816;13.072;2023-12-20T02:41:20;5.00;67.20
13707;DHT22;6925;47.816;13.072;2023-12-20T02:43:47;5.00;67.70
13707;DHT22;6925;47.816;13.072;2023-12-20T02:46:16;5.00;67.40
13707;DHT22;6925;47.816;13.072;2023-12-20T02:48:43;5.10;67.10
13707;DHT22;6925;47.816;13.072;2023-12-20T02:51:11;5.20;67.10
13707;DHT22;6925;47.816;13.072;2023-12-20T02:53:38;5.20;66.60
13707;DHT22;6925;47.816;13.072;2023-12-20T02:56:06;5.20;66.70
13707;DHT22;6925;47.816;13.072;2023-12-20T02:58:33;5.10;66.90
13707;DHT22;6925;47.816;13.072;2023-12-20T03:01:00;5.10;66.90
13707;DHT22;6925;47.816;13.072;2023-12-20T03:03:28;5.00;67.00
13707;DHT22;6925;47.816;13.072;2023-12-20T03:05:55;5.10;67.40
13707;DHT22;6925;47.816;13.072;2023-12-20T03:08:22;5.00;67.30
13707;DHT22;6925;47.816;13.072;2023-12-20T03:10:49;5.00;67.60
13707;DHT22;6925;47.816;13.072;2023-12-20T03:13:17;5.00;67.40
13707;DHT22;6925;47.816;13.072;2023-12-20T03:15:44;5.00;67.40
13707;DHT22;6925;47.816;13.072;2023-12-20T03:18:11;5.10;67.70
13707;DHT22;6925;47.816;13.072;2023-12-20T03:20:38;5.20;67.40
13707;DHT22;6925;47.816;13.072;2023-12-20T03:23:06;5.20;67.00
13707;DHT22;6925;47.816;13.072;2023-12-20T03:25:34;5.20;66.80
13707;DHT22;6925;47.816;13.072;2023-12-20T03:28:01;5.10;67.20
13707;DHT22;6925;47.816;13.072;2023-12-20T03:30:29;5.20;67.30
13707;DHT22;6925;47.816;13.072;2023-12-20T03:32:56;5.10;67.00
13707;DHT22;6925;47.816;13.072;2023-12-20T03:35:23;5.10;67.50
13707;DHT22;6925;47.816;13.072;2023-12-20T03:37:50;5.00;67.80
13707;DHT22;6925;47.816;13.072;2023-12-20T03:40:17;5.00;67.90
13707;DHT22;6925;47.816;13.072;2023-12-20T03:42:44;5.00;68.10
13707;DHT22;6925;47.816;13.072;2023-12-20T03:45:12;5.10;68.00
13707;DHT22;6925;47.816;13.072;2023-12-20T03:47:40;5.30;67.70
13707;DHT22;6925;47.816;13.072;2023-12-20T03:50:08;5.30;67.60
13707;DHT22;6925;47.816;13.072;2023-12-20T03:52:35;5.30;67.60
13707;DHT22;6925;47.816;13.072;2023-12-20T03:55:02;5.30;66.70
13707;DHT22;6925;47.816;13.072;2023-12-20T03:57:29;5.50;67.20
13707;DHT22;6925;47.816;13.072;2023-12-20T03:59:56;5.60;65.90
13707;DHT22;6925;47.816;13.072;2023-12-20T04:02:23;5.70;64.70
13707;DHT22;6925;47.816;13.072;2023-12-20T04:04:52;5.90;64.60
13707;DHT22;6925;47.816;13.072;2023-12-20T04:07:19;6.00;64.40
13707;DHT22;6925;47.816;13.072;2023-12-20T04:09:47;6.00;64.20
13707;DHT22;6925;47.816;13.072;2023-12-20T04:12:14;6.00;64.30
13707;DHT22;6925;47.816;13.072;2023-12-20T04:14:41;5.80;64.30
13707;DHT22;6925;47.816;13.072;2023-12-20T04:17:08;5.70;65.00
13707;DHT22;6925;47.816;13.072;2023-12-20T04:19:35;5.70;65.90
13707;DHT22;6925;47.816;13.072;2023-12-20T04:22:04;5.70;66.20
13707;DHT22;6925;47.816;13.072;2023-12-20T04:24:31;5.80;66.50
13707;DHT22;6925;47.816;13.072;2023-12-20T04:26:58;5.90;66.50
13707;DHT22;6925;47.816;13.072;2023-12-20T04:29:25;5.90;65.90
13707;DHT22;6925;47.816;13.072;2023-12-20T04:31:52;5.90;65.70
13707;DHT22;6925;47.816;13.072;2023-12-20T04:34:20;5.90;65.90
13707;DHT22;6925;47.816;13.072;2023-12-20T04:36:46;5.80;65.70
13707;DHT22;6925;47.816;13.072;2023-12-20T04:39:15;5.70;66.10
13707;DHT22;6925;47.816;13.072;2023-12-20T04:41:42;5.70;66.20
13707;DHT22;6925;47.816;13.072;2023-12-20T04:44:09;5.80;66.30
13707;DHT22;6925;47.816;13.072;2023-12-20T04:46:36;5.90;65.60
13707;DHT22;6925;47.816;13.072;2023-12-20T04:49:03;5.80;65.60
13707;DHT22;6925;47.816;13.072;2023-12-20T04:51:33;5.80;66.00
13707;DHT22;6925;47.816;13.072;2023-12-20T04:54:00;5.70;66.00
13707;DHT22;6925;47.816;13.072;2023-12-20T04:56:28;5.60;66.20
13707;DHT22;6925;47.816;13.072;2023-12-20T04:58:55;5.60;66.80
13707;DHT22;6925;47.816;13.072;2023-12-20T05:01:23;5.60;66.70
13707;DHT22;6925;47.816;13.072;2023-12-20T05:03:50;5.60;66.70
13707;DHT22;6925;47.816;13.072;2023-12-20T05:06:17;5.50;66.80
13707;DHT22;6925;47.816;13.072;2023-12-20T05:08:44;5.40;67.00
13707;DHT22;6925;47.816;13.072;2023-12-20T05:11:12;5.40;67.70
13707;DHT22;6925;47.816;13.072;2023-12-20T05:13:41;5.50;67.70
13707;DHT22;6925;47.816;13.072;2023-12-20T05:16:08;5.70;68.00
13707;DHT22;6925;47.816;13.072;2023-12-20T05:18:35;5.80;67.70
13707;DHT22;6925;47.816;13.072;2023-12-20T05:21:03;5.80;67.80
13707;DHT22;6925;47.816;13.072;2023-12-20T05:23:30;5.90;67.80
13707;DHT22;6925;47.816;13.072;2023-12-20T05:25:57;6.00;68.00
13707;DHT22;6925;47.816;13.072;2023-12-20T05:28:24;6.10;68.10
13707;DHT22;6925;47.816;13.072;2023-12-20T05:30:53;6.20;67.70
13707;DHT22;6925;47.816;13.072;2023-12-20T05:33:20;6.30;67.30
13707;DHT22;6925;47.816;13.072;2023-12-20T05:35:48;6.20;66.90
13707;DHT22;6925;47.816;13.072;2023-12-20T05:38:15;6.20;67.50
13707;DHT22;6925;47.816;13.072;2023-12-20T05:40:42;6.20;67.90
13707;DHT22;6925;47.816;13.072;2023-12-20T05:43:10;6.30;68.60
13707;DHT22;6925;47.816;13.072;2023-12-20T05:45:37;6.40;68.90
13707;DHT22;6925;47.816;13.072;2023-12-20T05:48:06;6.60;69.00
13707;DHT22;6925;47.816;13.072;2023-12-20T05:50:34;6.70;70.10
13707;DHT22;6925;47.816;13.072;2023-12-20T05:53:02;6.90;70.80
13707;DHT22;6925;47.816;13.072;2023-12-20T05:55:30;6.90;70.10
13707;DHT22;6925;47.816;13.072;2023-12-20T05:57:57;6.90;70.10
13707;DHT22;6925;47.816;13.072;2023-12-20T06:00:24;7.00;70.60
13707;DHT22;6925;47.816;13.072;2023-12-20T06:02:52;7.10;70.60
13707;DHT22;6925;47.816;13.072;2023-12-20T06:05:20;7.20;70.60
13707;DHT22;6925;47.816;13.072;2023-12-20T06:07:47;7.20;70.90
13707;DHT22;6925;47.816;13.072;2023-12-20T06:10:16;7.30;71.00
13707;DHT22;6925;47.816;13.072;2023-12-20T06:12:43;7.40;71.30
13707;DHT22;6925;47.816;13.072;2023-12-20T06:15:13;7.40;71.70
13707;DHT22;6925;47.816;13.072;2023-12-20T06:17:40;7.50;72.20
13707;DHT22;6925;47.816;13.072;2023-12-20T06:20:08;7.50;72.10
13707;DHT22;6925;47.816;13.072;2023-12-20T06:22:37;7.50;72.70
13707;DHT22;6925;47.816;13.072;2023-12-20T06:25:04;7.60;72.20
13707;DHT22;6925;47.816;13.072;2023-12-20T06:27:32;7.60;73.60
13707;DHT22;6925;47.816;13.072;2023-12-20T06:29:59;7.60;73.50
13707;DHT22;6925;47.816;13.072;2023-12-20T06:32:26;7.70;73.60
13707;DHT22;6925;47.816;13.072;2023-12-20T06:34:54;7.70;73.40
13707;DHT22;6925;47.816;13.072;2023-12-20T06:37:22;7.70;73.80
13707;DHT22;6925;47.816;13.072;2023-12-20T06:39:50;7.70;74.40
13707;DHT22;6925;47.816;13.072;2023-12-20T06:42:17;7.70;74.10
13707;DHT22;6925;47.816;13.072;2023-12-20T06:44:44;7.80;74.40
13707;DHT22;6925;47.816;13.072;2023-12-20T06:47:12;7.80;74.80
13707;DHT22;6925;47.816;13.072;2023-12-20T06:49:39;7.80;73.90
13707;DHT22;6925;47.816;13.072;2023-12-20T06:52:07;7.80;75.10
13707;DHT22;6925;47.816;13.072;2023-12-20T06:54:34;7.80;75.70
13707;DHT22;6925;47.816;13.072;2023-12-20T06:57:03;7.80;75.30
13707;DHT22;6925;47.816;13.072;2023-12-20T06:59:30;7.80;76.00
13707;DHT22;6925;47.816;13.072;2023-12-20T07:01:57;7.90;76.70
13707;DHT22;6925;47.816;13.072;2023-12-20T07:04:24;7.80;76.90
13707;DHT22;6925;47.816;13.072;2023-12-20T07:06:51;7.80;76.60
13707;DHT22;6925;47.816;13.072;2023-12-20T07:09:22;7.80;76.80
13707;DHT22;6925;47.816;13.072;2023-12-20T07:11:49;7.80;77.00
13707;DHT22;6925;47.816;13.072;2023-12-20T07:14:18;7.90;78.00
13707;DHT22;6925;47.816;13.072;2023-12-20T07:16:45;7.90;77.90
13707;DHT22;6925;47.816;13.072;2023-12-20T07:19:12;7.80;78.30
13707;DHT22;6925;47.816;13.072;2023-12-20T07:21:39;7.90;78.90
13707;DHT22;6925;47.816;13.072;2023-12-20T07:24:06;7.80;79.70
13707;DHT22;6925;47.816;13.072;2023-12-20T07:26:34;7.90;80.20
13707;DHT22;6925;47.816;13.072;2023-12-20T07:29:03;7.90;80.10
13707;DHT22;6925;47.816;13.072;2023-12-20T07:31:32;8.00;80.10
13707;DHT22;6925;47.816;13.072;2023-12-20T07:33:59;7.90;80.20
13707;DHT22;6925;47.816;13.072;2023-12-20T07:36:26;7.90;80.40
13707;DHT22;6925;47.816;13.072;2023-12-20T07:38:53;8.00;80.20
13707;DHT22;6925;47.816;13.072;2023-12-20T07:41:20;8.10;79.30
13707;DHT22;6925;47.816;13.072;2023-12-20T07:43:49;8.10;80.30
13707;DHT22;6925;47.816;13.072;2023-12-20T07:46:16;8.10;80.80
13707;DHT22;6925;47.816;13.072;2023-12-20T07:48:49;8.00;81.00
13707;DHT22;6925;47.816;13.072;2023-12-20T07:51:16;8.00;81.40
13707;DHT22;6925;47.816;13.072;2023-12-20T07:53:43;8.00;81.50
13707;DHT22;6925;47.816;13.072;2023-12-20T07:56:14;8.00;81.10
13707;DHT22;6925;47.816;13.072;2023-12-20T07:58:42;8.00;81.40
13707;DHT22;6925;47.816;13.072;2023-12-20T08:01:10;8.00;81.50
13707;DHT22;6925;47.816;13.072;2023-12-20T08:03:37;8.00;82.20
13707;DHT22;6925;47.816;13.072;2023-12-20T08:06:05;8.00;82.50
13707;DHT22;6925;47.816;13.072;2023-12-20T08:08:33;8.00;82.00
13707;DHT22;6925;47.816;13.072;2023-12-20T08:11:00;8.00;81.90
13707;DHT22;6925;47.816;13.072;2023-12-20T08:13:28;8.00;82.70
13707;DHT22;6925;47.816;13.072;2023-12-20T08:15:55;8.00;81.60
13707;DHT22;6925;47.816;13.072;2023-12-20T08:18:22;8.00;82.60
13707;DHT22;6925;47.816;13.072;2023-12-20T08:20:49;8.00;81.60
13707;DHT22;6925;47.816;13.072;2023-12-20T08:23:20;8.00;82.10
13707;DHT22;6925;47.816;13.072;2023-12-20T08:25:47;8.00;82.00
13707;DHT22;6925;47.816;13.072;2023-12-20T08:28:15;7.90;81.70
13707;DHT22;6925;47.816;13.072;2023-12-20T08:30:43;7.90;82.20
13707;DHT22;6925;47.816;13.072;2023-12-20T08:33:10;8.00;82.10
13707;DHT22;6925;47.816;13.072;2023-12-20T08:35:38;7.90;81.70
13707;DHT22;6925;47.816;13.072;2023-12-20T08:38:06;8.00;81.70
13707;DHT22;6925;47.816;13.072;2023-12-20T08:40:34;8.00;82.00
13707;DHT22;6925;47.816;13.072;2023-12-20T08:43:02;8.00;82.50
13707;DHT22;6925;47.816;13.072;2023-12-20T08:45:29;7.90;82.20
13707;DHT22;6925;47.816;13.072;2023-12-20T08:47:56;7.90;82.50
13707;DHT22;6925;47.816;13.072;2023-12-20T08:50:23;7.90;83.10
13707;DHT22;6925;47.816;13.072;2023-12-20T08:52:50;7.80;82.50
13707;DHT22;6925;47.816;13.072;2023-12-20T08:55:18;7.80;82.60
13707;DHT22;6925;47.816;13.072;2023-12-20T08:57:47;7.80;83.30
13707;DHT22;6925;47.816;13.072;2023-12-20T09:00:15;7.70;82.70
13707;DHT22;6925;47.816;13.072;2023-12-20T09:02:42;7.70;82.80
13707;DHT22;6925;47.816;13.072;2023-12-20T09:05:09;7.80;83.60
13707;DHT22;6925;47.816;13.072;2023-12-20T09:07:35;7.80;82.90
13707;DHT22;6925;47.816;13.072;2023-12-20T09:10:03;7.80;82.60
13707;DHT22;6925;47.816;13.072;2023-12-20T09:12:30;7.70;82.60
13707;DHT22;6925;47.816;13.072;2023-12-20T09:14:59;7.80;82.80
13707;DHT22;6925;47.816;13.072;2023-12-20T09:17:28;7.70;82.70
13707;DHT22;6925;47.816;13.072;2023-12-20T09:19:55;7.70;82.50
13707;DHT22;6925;47.816;13.072;2023-12-20T09:22:22;7.80;82.00
13707;DHT22;6925;47.816;13.072;2023-12-20T09:24:49;7.70;81.90
13707;DHT22;6925;47.816;13.072;2023-12-20T09:27:16;7.70;81.90
13707;DHT22;6925;47.816;13.072;2023-12-20T09:29:43;7.80;82.40
13707;DHT22;6925;47.816;13.072;2023-12-20T09:32:12;7.80;82.20
13707;DHT22;6925;47.816;13.072;2023-12-20T09:34:39;7.80;82.10
13707;DHT22;6925;47.816;13.072;2023-12-20T09:37:07;7.80;82.20
13707;DHT22;6925;47.816;13.072;2023-12-20T09:39:34;7.80;81.80
13707;DHT22;6925;47.816;13.072;2023-12-20T09:42:02;7.80;82.20
13707;DHT22;6925;47.816;13.072;2023-12-20T09:44:31;7.80;82.50
13707;DHT22;6925;47.816;13.072;2023-12-20T09:46:58;7.90;82.50
13707;DHT22;6925;47.816;13.072;2023-12-20T09:49:28;7.90;82.10
13707;DHT22;6925;47.816;13.072;2023-12-20T09:51:56;7.90;82.60
13707;DHT22;6925;47.816;13.072;2023-12-20T09:54:24;7.90;82.30
13707;DHT22;6925;47.816;13.072;2023-12-20T09:56:52;7.80;82.10
13707;DHT22;6925;47.816;13.072;2023-12-20T09:59:19;7.80;82.10
13707;DHT22;6925;47.816;13.072;2023-12-20T10:01:46;7.80;82.00
13707;DHT22;6925;47.816;13.072;2023-12-20T10:04:13;7.80;81.60
13707;DHT22;6925;47.816;13.072;2023-12-20T10:06:42;7.80;81.80
13707;DHT22;6925;47.816;13.072;2023-12-20T10:09:10;7.80;82.00
13707;DHT22;6925;47.816;13.072;2023-12-20T10:11:38;7.90;82.40
13707;DHT22;6925;47.816;13.072;2023-12-20T10:14:06;7.90;81.60
13707;DHT22;6925;47.816;13.072;2023-12-20T10:16:34;7.80;81.80
13707;DHT22;6925;47.816;13.072;2023-12-20T10:19:01;7.80;81.70
13707;DHT22;6925;47.816;13.072;2023-12-20T10:21:28;7.80;82.10
13707;DHT22;6925;47.816;13.072;2023-12-20T10:23:57;7.80;82.10
13707;DHT22;6925;47.816;13.072;2023-12-20T10:26:25;7.80;82.50
13707;DHT22;6925;47.816;13.072;2023-12-20T10:28:53;7.70;82.30
13707;DHT22;6925;47.816;13.072;2023-12-20T10:31:27;7.70;82.10
13707;DHT22;6925;47.816;13.072;2023-12-20T10:33:57;7.70;81.90
13707;DHT22;6925;47.816;13.072;2023-12-20T10:36:26;7.70;82.20
13707;DHT22;6925;47.816;13.072;2023-12-20T10:38:54;7.80;82.70
13707;DHT22;6925;47.816;13.072;2023-12-20T10:41:25;7.80;82.00
13707;DHT22;6925;47.816;13.072;2023-12-20T10:43:55;7.80;81.90
13707;DHT22;6925;47.816;13.072;2023-12-20T10:46:23;7.80;82.10
13707;DHT22;6925;47.816;13.072;2023-12-20T10:48:53;7.80;82.50
13707;DHT22;6925;47.816;13.072;2023-12-20T10:51:21;7.70;82.20
13707;DHT22;6925;47.816;13.072;2023-12-20T10:53:50;7.70;81.90
13707;DHT22;6925;47.816;13.072;2023-12-20T10:56:18;7.70;82.20
13707;DHT22;6925;47.816;13.072;2023-12-20T10:58:47;7.70;82.60
13707;DHT22;6925;47.816;13.072;2023-12-20T11:01:16;7.70;82.30
13707;DHT22;6925;47.816;13.072;2023-12-20T11:03:48;7.60;82.20
13707;DHT22;6925;47.816;13.072;2023-12-20T11:06:29;7.60;82.50
13707;DHT22;6925;47.816;13.072;2023-12-20T11:09:08;7.60;82.40
13707;DHT22;6925;47.816;13.072;2023-12-20T11:11:52;7.60;82.40
13707;DHT22;6925;47.816;13.072;2023-12-20T11:14:27;7.60;82.60
13707;DHT22;6925;47.816;13.072;2023-12-20T11:17:06;7.70;82.50
13707;DHT22;6925;47.816;13.072;2023-12-20T11:19:38;7.60;82.40
13707;DHT22;6925;47.816;13.072;2023-12-20T11:22:10;7.60;83.10
13707;DHT22;6925;47.816;13.072;2023-12-20T11:24:44;7.60;82.80
13707;DHT22;6925;47.816;13.072;2023-12-20T11:27:12;7.50;82.70
13707;DHT22;6925;47.816;13.072;2023-12-20T11:29:41;7.50;83.30
13707;DHT22;6925;47.816;13.072;2023-12-20T11:32:28;7.40;83.20
13707;DHT22;6925;47.816;13.072;2023-12-20T11:34:56;7.50;83.80
13707;DHT22;6925;47.816;13.072;2023-12-20T11:37:31;7.50;83.80
13707;DHT22;6925;47.816;13.072;2023-12-20T11:40:01;7.50;82.90
13707;DHT22;6925;47.816;13.072;2023-12-20T11:42:32;7.50;83.20
13707;DHT22;6925;47.816;13.072;2023-12-20T11:45:01;7.50;83.50
13707;DHT22;6925;47.816;13.072;2023-12-20T11:47:29;7.50;83.60
13707;DHT22;6925;47.816;13.072;2023-12-20T11:49:57;7.50;83.70
13707;DHT22;6925;47.816;13.072;2023-12-20T11:52:26;7.50;84.00
13707;DHT22;6925;47.816;13.072;2023-12-20T11:54:53;7.50;83.80
13707;DHT22;6925;47.816;13.072;2023-12-20T11:57:20;7.50;83.80
13707;DHT22;6925;47.816;13.072;2023-12-20T11:59:47;7.50;83.70
13707;DHT22;6925;47.816;13.072;2023-12-20T12:02:16;7.50;84.10
13707;DHT22;6925;47.816;13.072;2023-12-20T12:04:43;7.60;84.00
13707;DHT22;6925;47.816;13.072;2023-12-20T12:07:10;7.60;84.10
13707;DHT22;6925;47.816;13.072;2023-12-20T12:09:37;7.60;83.70
13707;DHT22;6925;47.816;13.072;2023-12-20T12:12:06;7.60;83.60
13707;DHT22;6925;47.816;13.072;2023-12-20T12:14:33;7.50;84.00
13707;DHT22;6925;47.816;13.072;2023-12-20T12:17:02;7.50;84.30
13707;DHT22;6925;47.816;13.072;2023-12-20T12:19:31;7.50;84.30
13707;DHT22;6925;47.816;13.072;2023-12-20T12:22:04;7.50;84.30
13707;DHT22;6925;47.816;13.072;2023-12-20T12:24:33;7.40;84.20
13707;DHT22;6925;47.816;13.072;2023-12-20T12:27:00;7.30;84.70
13707;DHT22;6925;47.816;13.072;2023-12-20T12:29:27;7.40;84.90
13707;DHT22;6925;47.816;13.072;2023-12-20T12:31:55;7.40;84.70
13707;DHT22;6925;47.816;13.072;2023-12-20T12:34:22;7.30;85.00
13707;DHT22;6925;47.816;13.072;2023-12-20T12:36:50;7.30;85.40
13707;DHT22;6925;47.816;13.072;2023-12-20T12:39:18;7.30;85.70
13707;DHT22;6925;47.816;13.072;2023-12-20T12:41:45;7.30;85.60
13707;DHT22;6925;47.816;13.072;2023-12-20T12:44:12;7.40;85.90
13707;DHT22;6925;47.816;13.072;2023-12-20T12:46:39;7.50;85.70
13707;DHT22;6925;47.816;13.072;2023-12-20T12:49:06;7.60;85.50
13707;DHT22;6925;47.816;13.072;2023-12-20T12:51:33;7.60;85.40
13707;DHT22;6925;47.816;13.072;2023-12-20T12:54:02;7.60;85.30
13707;DHT22;6925;47.816;13.072;2023-12-20T12:56:29;7.70;84.90
13707;DHT22;6925;47.816;13.072;2023-12-20T12:58:56;7.60;84.90
13707;DHT22;6925;47.816;13.072;2023-12-20T13:01:23;7.50;85.40
13707;DHT22;6925;47.816;13.072;2023-12-20T13:03:50;7.50;85.70
13707;DHT22;6925;47.816;13.072;2023-12-20T13:06:17;7.50;86.20
13707;DHT22;6925;47.816;13.072;2023-12-20T13:08:44;7.60;86.00
13707;DHT22;6925;47.816;13.072;2023-12-20T13:11:13;7.60;86.00
13707;DHT22;6925;47.816;13.072;2023-12-20T13:13:40;7.60;86.20
13707;DHT22;6925;47.816;13.072;2023-12-20T13:16:07;7.60;85.80
13707;DHT22;6925;47.816;13.072;2023-12-20T13:18:35;7.60;85.90
13707;DHT22;6925;47.816;13.072;2023-12-20T13:21:02;7.60;86.00
13707;DHT22;6925;47.816;13.072;2023-12-20T13:23:29;7.60;86.30
13707;DHT22;6925;47.816;13.072;2023-12-20T13:25:56;7.70;86.30
13707;DHT22;6925;47.816;13.072;2023-12-20T13:28:25;7.70;86.60
13707;DHT22;6925;47.816;13.072;2023-12-20T13:30:52;7.70;85.80
13707;DHT22;6925;47.816;13.072;2023-12-20T13:33:19;7.70;85.60
13707;DHT22;6925;47.816;13.072;2023-12-20T13:35:46;7.70;85.80
13707;DHT22;6925;47.816;13.072;2023-12-20T13:38:13;7.60;85.60
13707;DHT22;6925;47.816;13.072;2023-12-20T13:40:40;7.60;85.70
13707;DHT22;6925;47.816;13.072;2023-12-20T13:43:09;7.60;85.80
13707;DHT22;6925;47.816;13.072;2023-12-20T13:45:37;7.50;85.80
13707;DHT22;6925;47.816;13.072;2023-12-20T13:48:05;7.50;85.90
13707;DHT22;6925;47.816;13.072;2023-12-20T13:50:32;7.60;86.20
13707;DHT22;6925;47.816;13.072;2023-12-20T13:52:59;7.60;86.40
13707;DHT22;6925;47.816;13.072;2023-12-20T13:55:26;7.60;86.40
13707;DHT22;6925;47.816;13.072;2023-12-20T13:57:54;7.60;86.50
13707;DHT22;6925;47.816;13.072;2023-12-20T14:00:21;7.70;87.00
13707;DHT22;6925;47.816;13.072;2023-12-20T14:02:49;7.80;86.60
13707;DHT22;6925;47.816;13.072;2023-12-20T14:05:17;7.80;85.80
13707;DHT22;6925;47.816;13.072;2023-12-20T14:07:45;7.90;85.70
13707;DHT22;6925;47.816;13.072;2023-12-20T14:10:12;8.00;86.00
13707;DHT22;6925;47.816;13.072;2023-12-20T14:12:39;8.00;85.80
13707;DHT22;6925;47.816;13.072;2023-12-20T14:15:07;8.00;86.20
13707;DHT22;6925;47.816;13.072;2023-12-20T14:17:37;8.00;86.30
13707;DHT22;6925;47.816;13.072;2023-12-20T14:20:06;8.10;86.60
13707;DHT22;6925;47.816;13.072;2023-12-20T14:22:34;8.00;87.00
13707;DHT22;6925;47.816;13.072;2023-12-20T14:25:01;8.00;86.70
13707;DHT22;6925;47.816;13.072;2023-12-20T14:27:28;8.00;87.20
13707;DHT22;6925;47.816;13.072;2023-12-20T14:29:55;8.00;86.80
13707;DHT22;6925;47.816;13.072;2023-12-20T14:32:24;8.00;86.60
13707;DHT22;6925;47.816;13.072;2023-12-20T14:34:52;8.10;86.50
13707;DHT22;6925;47.816;13.072;2023-12-20T14:37:21;8.10;86.60
13707;DHT22;6925;47.816;13.072;2023-12-20T14:39:49;8.10;86.40
13707;DHT22;6925;47.816;13.072;2023-12-20T14:42:16;8.00;86.20
13707;DHT22;6925;47.816;13.072;2023-12-20T14:44:43;8.00;86.10
13707;DHT22;6925;47.816;13.072;2023-12-20T14:47:10;8.00;86.40
13707;DHT22;6925;47.816;13.072;2023-12-20T14:49:39;7.90;86.70
13707;DHT22;6925;47.816;13.072;2023-12-20T14:52:06;7.90;86.30
13707;DHT22;6925;47.816;13.072;2023-12-20T14:54:34;7.90;86.30
13707;DHT22;6925;47.816;13.072;2023-12-20T14:57:01;7.90;86.30
13707;DHT22;6925;47.816;13.072;2023-12-20T14:59:29;7.80;85.30
13707;DHT22;6925;47.816;13.072;2023-12-20T15:01:56;7.80;85.60
13707;DHT22;6925;47.816;13.072;2023-12-20T15:04:24;7.70;85.50
13707;DHT22;6925;47.816;13.072;2023-12-20T15:06:54;7.70;85.10
13707;DHT22;6925;47.816;13.072;2023-12-20T15:09:22;7.70;85.80
13707;DHT22;6925;47.816;13.072;2023-12-20T15:11:51;7.70;85.60
13707;DHT22;6925;47.816;13.072;2023-12-20T15:14:18;7.70;85.50
13707;DHT22;6925;47.816;13.072;2023-12-20T15:16:46;7.70;85.10
13707;DHT22;6925;47.816;13.072;2023-12-20T15:19:13;7.70;84.90
13707;DHT22;6925;47.816;13.072;2023-12-20T15:21:41;7.80;84.80
13707;DHT22;6925;47.816;13.072;2023-12-20T15:24:09;7.80;84.50
13707;DHT22;6925;47.816;13.072;2023-12-20T15:26:41;7.80;84.50
13707;DHT22;6925;47.816;13.072;2023-12-20T15:29:10;7.80;84.50
13707;DHT22;6925;47.816;13.072;2023-12-20T15:31:42;7.80;84.80
13707;DHT22;6925;47.816;13.072;2023-12-20T15:34:09;7.70;85.00
13707;DHT22;6925;47.816;13.072;2023-12-20T15:36:37;7.70;84.90
13707;DHT22;6925;47.816;13.072;2023-12-20T15:39:05;7.70;84.90
13707;DHT22;6925;47.816;13.072;2023-12-20T15:41:34;7.70;84.60
13707;DHT22;6925;47.816;13.072;2023-12-20T15:44:02;7.70;84.50
13707;DHT22;6925;47.816;13.072;2023-12-20T15:46:30;7.50;85.00
13707;DHT22;6925;47.816;13.072;2023-12-20T15:48:57;7.40;85.40